Weather observations for the past three days for
Fort Riley - Marshall AAF
Metric (Imperial)
Date Time (cdt) Wind (kph) Vis. (km) Weather Sky Cond. Temperature (ºC) Relative Humidity Wind Chill (°C) Heat Index (°C) Pressure Precipitation (cm)
Air Dwpt 6 hour altimeter (cm) sea level (mb) 1 hr 3 hr 6 hr
Max. Min.
07 13:55 SW 30 G 44 16.09 Fair CLR 21.5 3.6 31% 75.9 1011.4
07 12:55 SW 31 G 46 16.09 Fair CLR 20.2 4.2 20.2 6.2 35% 75.97 1012.5
07 11:55 SW 33 G 44 16.09 Fair and Breezy CLR 18.1 4.3 40% 76.05 1013.6
07 10:55 SW 39 16.09 Fair and Breezy CLR 16.6 4.6 45% 76.1 1014.3
07 09:55 SW 31 16.09 Fair CLR 14.4 4.7 52% 76.17 1015.4
07 08:55 W 26 16.09 Fair CLR 12.2 5.4 63% 76.23 1016.1
07 07:55 SW 19 16.09 Fair CLR 9.4 5.6 77% 7 76.25 1016.4
07 06:55 SW 9 16.09 Fair CLR 6 4 9.1 5.2 87% 4 76.25 1016.5
07 05:55 SW 13 16.09 Fair CLR 5.8 3.8 87% 3 76.25 1016.5
07 04:55 SW 7 16.09 Fair CLR 6.3 4 85% 5 76.28 1016.9
07 03:55 SW 9 16.09 Fair CLR 6.8 3.8 81% 5 76.28 1016.9
07 02:55 SW 9 16.09 Fair CLR 7.8 4.2 78% 6 76.33 1017.5
07 01:55 SW 6 16.09 Fair CLR 8.2 4 75% 76.35 1017.9
07 00:55 SW 7 16.09 Mostly Cloudy BKN120 9.4 4 15.8 9.2 69% 9 76.38 1018.2
06 23:55 SW 9 16.09 Overcast OVC130 10.5 4.4 66% 76.38 1018.1
06 22:55 W 6 16.09 Overcast OVC130 10 4.4 68% 76.38 1018.2
06 21:55 SW 7 16.09 Overcast OVC130 10.3 3.6 63% 76.38 1018.3
06 20:55 S 7 16.09 Fair CLR 11.5 2.2 53% 76.33 1017.5
06 19:55 W 9 16.09 Fair CLR 14.4 1 40% 76.3 1017.2
06 18:55 W 13 16.09 Fair CLR 15.9 -1.2 16.6 13.8 31% 76.33 1017.5
06 17:55 E 7 16.09 Mostly Cloudy BKN070 16.4 -0.3 32% 76.33 1017.5
06 16:55 W 6 16.09 Partly Cloudy FEW070 SCT170 15.6 -1 32% 76.35 1017.8
06 15:55 SW 6 16.09 Fair CLR 15.5 0.5 36% 76.38 1018.1
06 14:55 NW 7 16.09 Mostly Cloudy BKN060 14.6 0.1 37% 76.45 1019.2
06 13:55 Calm 16.09 Mostly Cloudy BKN170 14.4 -0.1 37% 76.45 1019.2
06 12:55 Calm 16.09 A Few Clouds FEW055 FEW180 13.8 1.1 13.9 7.7 42% 76.5 1019.8
06 11:55 Calm 16.09 Overcast BKN120 OVC140 12.7 1.4 46% 76.53 1020.3
06 10:55 W 6 16.09 Fair CLR 11.3 2.6 55% 76.53 1020.3
06 09:55 W 7 16.09 Mostly Cloudy BKN100 10.6 2.9 59% 76.5 1019.8
06 08:55 SW 7 16.09 Mostly Cloudy BKN110 9.9 4.1 67% 9 76.48 1019.6
06 07:55 W 6 16.09 Overcast BKN100 OVC120 8.6 4.2 74% 76.43 1018.9
06 06:55 SW 6 16.09 Partly Cloudy SCT130 8 2.7 10 7.6 70% 76.35 1018.0
06 05:55 SE 9 16.09 Overcast OVC130 8.3 2.9 69% 7 76.28 1016.9
06 04:55 NE 13 16.09 Light Drizzle FEW019 BKN044 8.8 2.1 63% 7 76.33 1017.5
06 03:55 Calm 16.09 Fair CLR 8.9 5.6 80% 76.33 1017.5
06 02:55 Calm 16.09 Overcast OVC100 8.8 5 77% 76.23 1016.3
06 01:55 Calm 16.09 Overcast OVC095 9.2 4.8 74% 76.23 1016.3
06 00:55 SE 7 16.09 Overcast OVC090 9.9 3 12.9 9.5 63% 9 76.12 1014.8
05 23:55 NE 9 16.09 Mostly Cloudy BKN100 9.7 2.8 62% 9 76.15 1015.2
05 22:55 N 17 16.09 Light Rain SCT020 11.2 2.5 55% 76.2 1015.8
05 21:55 E 11 16.09 Light Drizzle FEW026 SCT035 SCT060 12.6 0.7 44% 76.1 1014.5
05 20:55 N 7 16.09 A Few Clouds FEW065 11.9 2.9 54% 76 1013.1
05 19:55 Calm 16.09 Overcast OVC080 12.3 3 53% 75.97 1012.8
05 18:55 N 9 16.09 Overcast OVC080 12.9 1.6 13.7 10.8 46% 75.95 1012.4
05 17:55 N 13 16.09 Overcast OVC080 13.3 2.2 47% 75.92 1012.0
05 16:55 N 15 16.09 Overcast OVC080 13.2 4.9 57% 75.95 1012.3
05 15:55 NW 11 16.09 Overcast OVC080 12.7 4.9 59% 76 1012.9
05 14:55 NW 6 16.09 Overcast OVC080 11.6 5.9 68% 76.02 1013.3
05 13:55 N 11 16.09 Overcast OVC075 10.9 4.8 66% 76.02 1013.3
05 12:55 N 15 16.09 Overcast OVC070 11 4.9 11.1 9.3 66% 76.02 1013.2 0.05
05 11:55 NE 15 16.09 Overcast OVC065 10.4 5 69% 76.05 1013.5
05 10:55 E 15 16.09 Overcast SCT060 OVC090 10 5.4 73% 8 76 1012.8
05 09:55 NE 15 16.09 Overcast BKN065 OVC090 9.8 6.7 81% 8 76 1012.7 0.03 0.05
05 08:55 NE 13 16.09 Light Rain FEW038 FEW048 BKN060 OVC080 9.7 6.6 81% 8 75.95 1012.0
05 07:55 NE 7 16.09 Light Rain BKN075 BKN090 9.8 6.7 81% 9 75.87 1010.9 0.03
05 06:55 E 13 6.44 Light Rain BKN041 OVC070 9.4 6.7 16.6 9.4 83% 8 75.79 1009.8 0.18 0.18
05 05:55 N 7 16.09 Thunderstorm Light Drizzle OVC080 11.6 2.6 54% 75.79 1009.7
05 04:55 NE 22 16.09 Mostly Cloudy BKN095 BKN120 13.1 -0.5 39% 75.62 1007.2
05 03:55 NE 26 G 37 16.09 Mostly Cloudy BKN095 BKN130 13.3 -0.4 39% 75.64 1007.6
05 02:55 NE 31 G 43 16.09 Mostly Cloudy BKN100 14.4 -0.5 36% 75.62 1007.2
05 01:55 NE 30 16.09 Overcast OVC100 15.2 1 38% 75.54 1006.1
05 00:55 NE 30 G 41 16.09 Mostly Cloudy BKN130 BKN160 16.7 0.8 27.4 16.7 34% 75.51 1005.8
04 23:55 NE 31 G 41 16.09 Thunderstorm in Vicinity FEW070 OVC090 19.1 1.6 31% 75.46 1005.1
04 22:55 N 30 G 39 16.09 Thunderstorm in Vicinity BKN065 20.8 2.1 29% 75.39 1004.1
04 21:55 NE 24 16.09 Fair CLR 22.1 5.1 33% 75.26 1002.4
04 20:55 E 7 16.09 Fair CLR 23.1 10.5 45% 75.13 1000.8
04 19:55 SE 9 8.05 Fair with Haze CLR 25.4 11.5 42% 26 75.08 1000.1
04 18:55 S 11 16.09 Fair CLR 27.4 9.7 29.8 27.3 33% 27 75.08 1000.1
04 17:55 S 9 16.09 Fair CLR 27.9 9.2 31% 27 75.08 1000.2
04 16:55 SE 7 16.09 Fair CLR 28.4 5.3 23% 27 75.06 999.8
04 15:55 SW 6 16.09 Fair CLR 29.3 7.2 25% 28 75.11 1000.4
04 14:55 Calm 16.09 A Few Clouds FEW200 29.3 6 23% 28 75.16 1001.2
Date Time (cdt) Wind (kph) Vis. (km) Weather Sky Cond. Air Dwpt Max. Min. Relative Humidity Wind Chill (°C) Heat Index (°C) altimeter (cm) sea level (mb) 1 hr 3 hr 6 hr
6 hour
Temperature (ºC) Pressure Precipitation (cm)